sensor_id;sensor_type;location;lat;lon;timestamp;P1;durP1;ratioP1;P2;durP2;ratioP2
19016;SDS011;9641;51.494;6.670;2022-12-17T00:00:58;79.53;;;26.10;;
19016;SDS011;9641;51.494;6.670;2022-12-17T00:03:43;85.67;;;27.13;;
19016;SDS011;9641;51.494;6.670;2022-12-17T00:06:29;74.00;;;24.83;;
19016;SDS011;9641;51.494;6.670;2022-12-17T00:09:20;76.13;;;25.43;;
19016;SDS011;9641;51.494;6.670;2022-12-17T00:12:06;78.20;;;25.60;;
19016;SDS011;9641;51.494;6.670;2022-12-17T00:14:55;87.87;;;25.97;;
19016;SDS011;9641;51.494;6.670;2022-12-17T00:17:39;69.77;;;24.10;;
19016;SDS011;9641;51.494;6.670;2022-12-17T00:20:25;73.90;;;25.40;;
19016;SDS011;9641;51.494;6.670;2022-12-17T00:23:13;74.40;;;24.67;;
19016;SDS011;9641;51.494;6.670;2022-12-17T00:26:01;75.83;;;24.43;;
19016;SDS011;9641;51.494;6.670;2022-12-17T00:28:46;75.13;;;24.43;;
19016;SDS011;9641;51.494;6.670;2022-12-17T00:34:42;71.33;;;23.87;;
19016;SDS011;9641;51.494;6.670;2022-12-17T00:37:48;77.90;;;23.77;;
19016;SDS011;9641;51.494;6.670;2022-12-17T00:40:35;67.47;;;23.00;;
19016;SDS011;9641;51.494;6.670;2022-12-17T00:43:21;67.60;;;24.30;;
19016;SDS011;9641;51.494;6.670;2022-12-17T00:46:07;75.53;;;24.73;;
19016;SDS011;9641;51.494;6.670;2022-12-17T00:48:55;63.37;;;21.53;;
19016;SDS011;9641;51.494;6.670;2022-12-17T00:51:40;75.70;;;24.37;;
19016;SDS011;9641;51.494;6.670;2022-12-17T00:54:28;65.93;;;23.03;;
19016;SDS011;9641;51.494;6.670;2022-12-17T00:57:14;78.83;;;26.13;;
19016;SDS011;9641;51.494;6.670;2022-12-17T01:00:01;78.77;;;23.87;;
19016;SDS011;9641;51.494;6.670;2022-12-17T01:02:48;65.80;;;24.10;;
19016;SDS011;9641;51.494;6.670;2022-12-17T01:05:37;59.33;;;22.97;;
19016;SDS011;9641;51.494;6.670;2022-12-17T01:08:28;76.37;;;25.50;;
19016;SDS011;9641;51.494;6.670;2022-12-17T01:11:12;67.07;;;23.20;;
19016;SDS011;9641;51.494;6.670;2022-12-17T01:13:59;69.17;;;22.90;;
19016;SDS011;9641;51.494;6.670;2022-12-17T01:16:44;60.50;;;23.10;;
19016;SDS011;9641;51.494;6.670;2022-12-17T01:19:30;68.20;;;21.60;;
19016;SDS011;9641;51.494;6.670;2022-12-17T01:22:18;62.23;;;21.10;;
19016;SDS011;9641;51.494;6.670;2022-12-17T01:25:05;65.93;;;22.83;;
19016;SDS011;9641;51.494;6.670;2022-12-17T01:27:50;72.67;;;22.60;;
19016;SDS011;9641;51.494;6.670;2022-12-17T01:30:37;68.50;;;22.40;;
19016;SDS011;9641;51.494;6.670;2022-12-17T01:33:23;85.57;;;25.83;;
19016;SDS011;9641;51.494;6.670;2022-12-17T01:36:09;76.97;;;24.57;;
19016;SDS011;9641;51.494;6.670;2022-12-17T01:38:57;72.40;;;23.33;;
19016;SDS011;9641;51.494;6.670;2022-12-17T01:41:47;66.60;;;24.13;;
19016;SDS011;9641;51.494;6.670;2022-12-17T01:44:42;68.47;;;23.70;;
19016;SDS011;9641;51.494;6.670;2022-12-17T01:47:31;73.87;;;24.37;;
19016;SDS011;9641;51.494;6.670;2022-12-17T01:50:19;71.00;;;23.03;;
19016;SDS011;9641;51.494;6.670;2022-12-17T01:53:20;64.93;;;24.87;;
19016;SDS011;9641;51.494;6.670;2022-12-17T01:56:20;68.57;;;23.33;;
19016;SDS011;9641;51.494;6.670;2022-12-17T01:59:06;80.70;;;26.67;;
19016;SDS011;9641;51.494;6.670;2022-12-17T02:01:53;78.53;;;24.93;;
19016;SDS011;9641;51.494;6.670;2022-12-17T02:04:39;79.20;;;25.07;;
19016;SDS011;9641;51.494;6.670;2022-12-17T02:07:36;76.80;;;23.87;;
19016;SDS011;9641;51.494;6.670;2022-12-17T02:10:39;73.67;;;23.10;;
19016;SDS011;9641;51.494;6.670;2022-12-17T02:13:49;62.33;;;21.97;;
19016;SDS011;9641;51.494;6.670;2022-12-17T02:16:43;68.70;;;22.73;;
19016;SDS011;9641;51.494;6.670;2022-12-17T02:19:36;79.87;;;24.43;;
19016;SDS011;9641;51.494;6.670;2022-12-17T02:22:32;84.53;;;26.73;;
19016;SDS011;9641;51.494;6.670;2022-12-17T02:25:31;92.83;;;29.50;;
19016;SDS011;9641;51.494;6.670;2022-12-17T02:28:30;83.33;;;25.90;;
19016;SDS011;9641;51.494;6.670;2022-12-17T02:31:16;84.43;;;26.03;;
19016;SDS011;9641;51.494;6.670;2022-12-17T02:34:03;77.73;;;23.97;;
19016;SDS011;9641;51.494;6.670;2022-12-17T02:36:49;72.07;;;24.57;;
19016;SDS011;9641;51.494;6.670;2022-12-17T02:39:37;74.77;;;23.40;;
19016;SDS011;9641;51.494;6.670;2022-12-17T02:42:25;75.87;;;26.40;;
19016;SDS011;9641;51.494;6.670;2022-12-17T02:45:21;94.10;;;27.60;;
19016;SDS011;9641;51.494;6.670;2022-12-17T02:48:17;85.33;;;25.70;;
19016;SDS011;9641;51.494;6.670;2022-12-17T02:51:04;82.53;;;25.37;;
19016;SDS011;9641;51.494;6.670;2022-12-17T02:53:50;93.83;;;26.60;;
19016;SDS011;9641;51.494;6.670;2022-12-17T02:56:36;85.37;;;26.13;;
19016;SDS011;9641;51.494;6.670;2022-12-17T02:59:25;86.97;;;26.00;;
19016;SDS011;9641;51.494;6.670;2022-12-17T03:02:20;73.97;;;24.83;;
19016;SDS011;9641;51.494;6.670;2022-12-17T03:05:07;82.30;;;28.33;;
19016;SDS011;9641;51.494;6.670;2022-12-17T03:07:53;79.53;;;27.33;;
19016;SDS011;9641;51.494;6.670;2022-12-17T03:10:40;80.30;;;25.73;;
19016;SDS011;9641;51.494;6.670;2022-12-17T03:13:25;76.57;;;28.10;;
19016;SDS011;9641;51.494;6.670;2022-12-17T03:16:14;79.53;;;26.87;;
19016;SDS011;9641;51.494;6.670;2022-12-17T03:19:02;90.67;;;25.30;;
19016;SDS011;9641;51.494;6.670;2022-12-17T03:21:47;79.10;;;24.53;;
19016;SDS011;9641;51.494;6.670;2022-12-17T03:24:32;84.00;;;26.17;;
19016;SDS011;9641;51.494;6.670;2022-12-17T03:27:21;85.83;;;27.30;;
19016;SDS011;9641;51.494;6.670;2022-12-17T03:30:06;85.17;;;26.80;;
19016;SDS011;9641;51.494;6.670;2022-12-17T03:33:00;84.27;;;26.67;;
19016;SDS011;9641;51.494;6.670;2022-12-17T03:38:49;79.40;;;26.13;;
19016;SDS011;9641;51.494;6.670;2022-12-17T03:41:36;79.90;;;25.70;;
19016;SDS011;9641;51.494;6.670;2022-12-17T03:44:20;65.87;;;24.23;;
19016;SDS011;9641;51.494;6.670;2022-12-17T03:47:05;67.23;;;22.60;;
19016;SDS011;9641;51.494;6.670;2022-12-17T03:49:53;69.80;;;23.10;;
19016;SDS011;9641;51.494;6.670;2022-12-17T03:52:42;72.17;;;25.00;;
19016;SDS011;9641;51.494;6.670;2022-12-17T03:55:29;78.93;;;25.87;;
19016;SDS011;9641;51.494;6.670;2022-12-17T03:58:14;72.10;;;24.03;;
19016;SDS011;9641;51.494;6.670;2022-12-17T04:01:04;71.67;;;23.60;;
19016;SDS011;9641;51.494;6.670;2022-12-17T04:03:50;67.07;;;23.57;;
19016;SDS011;9641;51.494;6.670;2022-12-17T04:06:41;70.87;;;24.03;;
19016;SDS011;9641;51.494;6.670;2022-12-17T04:09:28;71.87;;;23.43;;
19016;SDS011;9641;51.494;6.670;2022-12-17T04:12:13;69.43;;;23.90;;
19016;SDS011;9641;51.494;6.670;2022-12-17T04:14:59;64.93;;;22.47;;
19016;SDS011;9641;51.494;6.670;2022-12-17T04:17:43;64.83;;;23.00;;
19016;SDS011;9641;51.494;6.670;2022-12-17T04:20:29;71.13;;;23.77;;
19016;SDS011;9641;51.494;6.670;2022-12-17T04:23:16;69.23;;;23.83;;
19016;SDS011;9641;51.494;6.670;2022-12-17T04:29:21;74.70;;;23.20;;
19016;SDS011;9641;51.494;6.670;2022-12-17T04:32:06;73.17;;;23.67;;
19016;SDS011;9641;51.494;6.670;2022-12-17T04:34:51;71.67;;;24.73;;
19016;SDS011;9641;51.494;6.670;2022-12-17T04:37:35;82.87;;;25.27;;
19016;SDS011;9641;51.494;6.670;2022-12-17T04:40:20;76.37;;;25.10;;
19016;SDS011;9641;51.494;6.670;2022-12-17T04:43:07;89.33;;;26.83;;
19016;SDS011;9641;51.494;6.670;2022-12-17T04:45:54;85.03;;;25.47;;
19016;SDS011;9641;51.494;6.670;2022-12-17T04:48:39;76.93;;;25.03;;
19016;SDS011;9641;51.494;6.670;2022-12-17T04:51:24;75.40;;;26.47;;
19016;SDS011;9641;51.494;6.670;2022-12-17T04:54:08;74.43;;;25.00;;
19016;SDS011;9641;51.494;6.670;2022-12-17T04:56:56;66.23;;;22.77;;
19016;SDS011;9641;51.494;6.670;2022-12-17T05:02:41;74.53;;;23.93;;
19016;SDS011;9641;51.494;6.670;2022-12-17T05:05:27;75.17;;;25.07;;
19016;SDS011;9641;51.494;6.670;2022-12-17T05:08:12;79.03;;;26.13;;
19016;SDS011;9641;51.494;6.670;2022-12-17T05:11:00;78.23;;;24.60;;
19016;SDS011;9641;51.494;6.670;2022-12-17T05:13:46;76.27;;;25.63;;
19016;SDS011;9641;51.494;6.670;2022-12-17T05:16:41;65.47;;;22.90;;
19016;SDS011;9641;51.494;6.670;2022-12-17T05:19:29;70.57;;;23.67;;
19016;SDS011;9641;51.494;6.670;2022-12-17T05:22:14;75.10;;;26.43;;
19016;SDS011;9641;51.494;6.670;2022-12-17T05:25:02;77.13;;;26.07;;
19016;SDS011;9641;51.494;6.670;2022-12-17T05:27:47;71.10;;;25.47;;
19016;SDS011;9641;51.494;6.670;2022-12-17T05:30:32;72.10;;;26.87;;
19016;SDS011;9641;51.494;6.670;2022-12-17T05:33:19;68.10;;;25.43;;
19016;SDS011;9641;51.494;6.670;2022-12-17T05:36:04;60.47;;;22.20;;
19016;SDS011;9641;51.494;6.670;2022-12-17T05:38:50;60.47;;;22.73;;
19016;SDS011;9641;51.494;6.670;2022-12-17T05:41:35;57.70;;;21.50;;
19016;SDS011;9641;51.494;6.670;2022-12-17T05:44:19;53.00;;;20.63;;
19016;SDS011;9641;51.494;6.670;2022-12-17T05:47:05;59.13;;;20.00;;
19016;SDS011;9641;51.494;6.670;2022-12-17T05:50:11;62.23;;;19.97;;
19016;SDS011;9641;51.494;6.670;2022-12-17T05:52:59;64.80;;;19.37;;
19016;SDS011;9641;51.494;6.670;2022-12-17T05:55:47;61.87;;;21.80;;
19016;SDS011;9641;51.494;6.670;2022-12-17T05:58:33;62.53;;;21.13;;
19016;SDS011;9641;51.494;6.670;2022-12-17T06:01:19;64.37;;;19.77;;
19016;SDS011;9641;51.494;6.670;2022-12-17T06:04:04;55.80;;;20.10;;
19016;SDS011;9641;51.494;6.670;2022-12-17T06:06:51;55.63;;;20.10;;
19016;SDS011;9641;51.494;6.670;2022-12-17T06:09:35;52.93;;;19.27;;
19016;SDS011;9641;51.494;6.670;2022-12-17T06:12:20;56.20;;;20.07;;
19016;SDS011;9641;51.494;6.670;2022-12-17T06:15:05;57.50;;;21.27;;
19016;SDS011;9641;51.494;6.670;2022-12-17T06:17:51;64.13;;;18.50;;
19016;SDS011;9641;51.494;6.670;2022-12-17T06:20:38;49.03;;;18.77;;
19016;SDS011;9641;51.494;6.670;2022-12-17T06:23:32;58.07;;;18.83;;
19016;SDS011;9641;51.494;6.670;2022-12-17T06:26:17;56.00;;;19.20;;
19016;SDS011;9641;51.494;6.670;2022-12-17T06:29:02;44.70;;;18.00;;
19016;SDS011;9641;51.494;6.670;2022-12-17T06:32:12;50.87;;;18.63;;
19016;SDS011;9641;51.494;6.670;2022-12-17T06:34:52;62.43;;;20.00;;
19016;SDS011;9641;51.494;6.670;2022-12-17T06:37:38;54.77;;;19.70;;
19016;SDS011;9641;51.494;6.670;2022-12-17T06:40:25;51.73;;;19.90;;
19016;SDS011;9641;51.494;6.670;2022-12-17T06:43:09;54.23;;;20.20;;
19016;SDS011;9641;51.494;6.670;2022-12-17T06:45:56;55.10;;;21.60;;
19016;SDS011;9641;51.494;6.670;2022-12-17T06:48:41;51.87;;;20.30;;
19016;SDS011;9641;51.494;6.670;2022-12-17T06:51:28;60.50;;;20.80;;
19016;SDS011;9641;51.494;6.670;2022-12-17T06:54:14;63.20;;;20.83;;
19016;SDS011;9641;51.494;6.670;2022-12-17T06:57:01;61.30;;;23.10;;
19016;SDS011;9641;51.494;6.670;2022-12-17T06:59:51;55.00;;;24.17;;
19016;SDS011;9641;51.494;6.670;2022-12-17T07:02:36;51.97;;;20.73;;
19016;SDS011;9641;51.494;6.670;2022-12-17T07:05:30;47.13;;;20.03;;
19016;SDS011;9641;51.494;6.670;2022-12-17T07:08:16;56.47;;;20.37;;
19016;SDS011;9641;51.494;6.670;2022-12-17T07:11:02;57.07;;;21.00;;
19016;SDS011;9641;51.494;6.670;2022-12-17T07:16:50;52.03;;;20.43;;
19016;SDS011;9641;51.494;6.670;2022-12-17T07:19:36;51.07;;;19.10;;
19016;SDS011;9641;51.494;6.670;2022-12-17T07:22:24;53.60;;;21.80;;
19016;SDS011;9641;51.494;6.670;2022-12-17T07:25:09;54.57;;;21.27;;
19016;SDS011;9641;51.494;6.670;2022-12-17T07:27:57;53.50;;;20.63;;
19016;SDS011;9641;51.494;6.670;2022-12-17T07:30:47;49.73;;;20.90;;
19016;SDS011;9641;51.494;6.670;2022-12-17T07:33:44;50.63;;;18.60;;
19016;SDS011;9641;51.494;6.670;2022-12-17T07:36:35;53.17;;;20.93;;
19016;SDS011;9641;51.494;6.670;2022-12-17T07:39:21;54.33;;;20.43;;
19016;SDS011;9641;51.494;6.670;2022-12-17T07:42:45;49.20;;;19.33;;
19016;SDS011;9641;51.494;6.670;2022-12-17T07:46:02;46.97;;;19.53;;
19016;SDS011;9641;51.494;6.670;2022-12-17T07:49:03;41.10;;;17.83;;
19016;SDS011;9641;51.494;6.670;2022-12-17T07:51:49;41.60;;;17.37;;
19016;SDS011;9641;51.494;6.670;2022-12-17T07:54:37;42.73;;;16.60;;
19016;SDS011;9641;51.494;6.670;2022-12-17T07:57:24;48.30;;;19.47;;
19016;SDS011;9641;51.494;6.670;2022-12-17T08:00:11;43.40;;;17.67;;
19016;SDS011;9641;51.494;6.670;2022-12-17T08:12:42;50.83;;;19.93;;
19016;SDS011;9641;51.494;6.670;2022-12-17T08:15:43;59.77;;;20.10;;
19016;SDS011;9641;51.494;6.670;2022-12-17T08:18:34;55.60;;;20.47;;
19016;SDS011;9641;51.494;6.670;2022-12-17T08:21:20;58.70;;;21.90;;
19016;SDS011;9641;51.494;6.670;2022-12-17T08:24:05;46.33;;;19.43;;
19016;SDS011;9641;51.494;6.670;2022-12-17T08:30:24;53.03;;;17.57;;
19016;SDS011;9641;51.494;6.670;2022-12-17T08:33:28;61.67;;;20.47;;
19016;SDS011;9641;51.494;6.670;2022-12-17T08:36:13;55.27;;;19.87;;
19016;SDS011;9641;51.494;6.670;2022-12-17T08:38:59;50.30;;;19.67;;
19016;SDS011;9641;51.494;6.670;2022-12-17T08:41:46;54.30;;;19.67;;
19016;SDS011;9641;51.494;6.670;2022-12-17T08:44:32;58.93;;;21.23;;
19016;SDS011;9641;51.494;6.670;2022-12-17T09:03:36;51.40;;;18.90;;
19016;SDS011;9641;51.494;6.670;2022-12-17T09:06:34;51.10;;;18.10;;
19016;SDS011;9641;51.494;6.670;2022-12-17T09:09:22;49.53;;;17.90;;
19016;SDS011;9641;51.494;6.670;2022-12-17T09:12:13;49.83;;;19.13;;
19016;SDS011;9641;51.494;6.670;2022-12-17T09:15:00;53.90;;;20.30;;
19016;SDS011;9641;51.494;6.670;2022-12-17T09:17:50;64.07;;;22.73;;
19016;SDS011;9641;51.494;6.670;2022-12-17T09:20:41;50.33;;;19.27;;
19016;SDS011;9641;51.494;6.670;2022-12-17T09:23:38;55.63;;;20.67;;
19016;SDS011;9641;51.494;6.670;2022-12-17T09:26:45;47.33;;;18.17;;
19016;SDS011;9641;51.494;6.670;2022-12-17T09:29:35;51.37;;;18.53;;
19016;SDS011;9641;51.494;6.670;2022-12-17T09:32:20;59.70;;;19.13;;
19016;SDS011;9641;51.494;6.670;2022-12-17T10:12:35;48.63;;;17.40;;
19016;SDS011;9641;51.494;6.670;2022-12-17T10:16:36;45.97;;;16.60;;
19016;SDS011;9641;51.494;6.670;2022-12-17T10:19:59;59.10;;;17.60;;
19016;SDS011;9641;51.494;6.670;2022-12-17T10:26:15;50.17;;;16.77;;
19016;SDS011;9641;51.494;6.670;2022-12-17T10:29:35;46.60;;;15.63;;
19016;SDS011;9641;51.494;6.670;2022-12-17T10:32:30;62.57;;;20.37;;
19016;SDS011;9641;51.494;6.670;2022-12-17T10:39:05;52.10;;;17.73;;
19016;SDS011;9641;51.494;6.670;2022-12-17T10:41:59;49.43;;;18.37;;
19016;SDS011;9641;51.494;6.670;2022-12-17T10:44:58;54.40;;;17.10;;
19016;SDS011;9641;51.494;6.670;2022-12-17T10:52:17;53.50;;;19.10;;
19016;SDS011;9641;51.494;6.670;2022-12-17T10:55:26;58.57;;;19.47;;
19016;SDS011;9641;51.494;6.670;2022-12-17T10:58:17;48.00;;;17.13;;
19016;SDS011;9641;51.494;6.670;2022-12-17T11:01:04;43.60;;;15.67;;
19016;SDS011;9641;51.494;6.670;2022-12-17T11:03:55;50.07;;;18.47;;
19016;SDS011;9641;51.494;6.670;2022-12-17T11:06:46;51.57;;;18.43;;
19016;SDS011;9641;51.494;6.670;2022-12-17T11:09:41;49.57;;;17.43;;
19016;SDS011;9641;51.494;6.670;2022-12-17T11:15:46;43.50;;;17.37;;
19016;SDS011;9641;51.494;6.670;2022-12-17T11:18:51;45.80;;;17.90;;
19016;SDS011;9641;51.494;6.670;2022-12-17T11:21:48;51.77;;;18.37;;
19016;SDS011;9641;51.494;6.670;2022-12-17T11:24:46;49.10;;;17.33;;
19016;SDS011;9641;51.494;6.670;2022-12-17T11:27:41;49.87;;;17.43;;
19016;SDS011;9641;51.494;6.670;2022-12-17T11:30:47;46.17;;;17.33;;
19016;SDS011;9641;51.494;6.670;2022-12-17T11:33:44;43.87;;;16.70;;
19016;SDS011;9641;51.494;6.670;2022-12-17T11:40:46;51.67;;;18.63;;
19016;SDS011;9641;51.494;6.670;2022-12-17T11:44:08;50.47;;;18.93;;
19016;SDS011;9641;51.494;6.670;2022-12-17T11:47:13;45.47;;;18.17;;
19016;SDS011;9641;51.494;6.670;2022-12-17T11:50:19;40.77;;;16.53;;
19016;SDS011;9641;51.494;6.670;2022-12-17T11:53:48;55.23;;;19.03;;
19016;SDS011;9641;51.494;6.670;2022-12-17T11:57:13;43.47;;;16.57;;
19016;SDS011;9641;51.494;6.670;2022-12-17T12:00:15;42.13;;;16.67;;
19016;SDS011;9641;51.494;6.670;2022-12-17T12:03:11;50.63;;;17.83;;
19016;SDS011;9641;51.494;6.670;2022-12-17T12:06:09;48.27;;;18.77;;
19016;SDS011;9641;51.494;6.670;2022-12-17T12:09:02;49.23;;;16.73;;
19016;SDS011;9641;51.494;6.670;2022-12-17T12:11:56;49.50;;;17.23;;
19016;SDS011;9641;51.494;6.670;2022-12-17T12:14:53;41.83;;;16.23;;
19016;SDS011;9641;51.494;6.670;2022-12-17T12:17:48;51.60;;;16.70;;
19016;SDS011;9641;51.494;6.670;2022-12-17T12:33:10;49.33;;;16.80;;
19016;SDS011;9641;51.494;6.670;2022-12-17T12:36:10;52.40;;;17.57;;
19016;SDS011;9641;51.494;6.670;2022-12-17T12:39:00;54.77;;;19.07;;
19016;SDS011;9641;51.494;6.670;2022-12-17T12:45:24;49.13;;;19.30;;
19016;SDS011;9641;51.494;6.670;2022-12-17T12:48:22;51.37;;;18.63;;
19016;SDS011;9641;51.494;6.670;2022-12-17T12:51:15;47.47;;;18.27;;
19016;SDS011;9641;51.494;6.670;2022-12-17T12:57:28;64.47;;;21.10;;
19016;SDS011;9641;51.494;6.670;2022-12-17T13:00:33;56.47;;;20.50;;
19016;SDS011;9641;51.494;6.670;2022-12-17T13:03:38;55.03;;;20.97;;
19016;SDS011;9641;51.494;6.670;2022-12-17T13:06:53;63.97;;;20.67;;
19016;SDS011;9641;51.494;6.670;2022-12-17T13:10:31;61.63;;;22.00;;
19016;SDS011;9641;51.494;6.670;2022-12-17T13:13:10;60.17;;;20.07;;
19016;SDS011;9641;51.494;6.670;2022-12-17T13:16:19;52.23;;;19.03;;
19016;SDS011;9641;51.494;6.670;2022-12-17T13:19:18;49.30;;;19.83;;
19016;SDS011;9641;51.494;6.670;2022-12-17T13:22:26;57.97;;;19.87;;
19016;SDS011;9641;51.494;6.670;2022-12-17T13:29:18;68.00;;;21.90;;
19016;SDS011;9641;51.494;6.670;2022-12-17T13:41:18;63.63;;;23.20;;
19016;SDS011;9641;51.494;6.670;2022-12-17T13:43:51;69.57;;;24.93;;
19016;SDS011;9641;51.494;6.670;2022-12-17T13:46:22;73.80;;;24.67;;
19016;SDS011;9641;51.494;6.670;2022-12-17T13:48:52;65.30;;;24.13;;
19016;SDS011;9641;51.494;6.670;2022-12-17T13:51:38;62.80;;;22.67;;
19016;SDS011;9641;51.494;6.670;2022-12-17T13:54:11;73.67;;;25.43;;
19016;SDS011;9641;51.494;6.670;2022-12-17T13:56:45;68.00;;;22.80;;
19016;SDS011;9641;51.494;6.670;2022-12-17T13:59:16;65.47;;;22.93;;
19016;SDS011;9641;51.494;6.670;2022-12-17T14:01:49;70.23;;;24.50;;
19016;SDS011;9641;51.494;6.670;2022-12-17T14:04:23;74.10;;;26.17;;
19016;SDS011;9641;51.494;6.670;2022-12-17T14:06:52;68.23;;;23.60;;
19016;SDS011;9641;51.494;6.670;2022-12-17T14:09:25;66.47;;;23.83;;
19016;SDS011;9641;51.494;6.670;2022-12-17T14:12:03;66.20;;;24.00;;
19016;SDS011;9641;51.494;6.670;2022-12-17T14:14:48;65.33;;;23.17;;
19016;SDS011;9641;51.494;6.670;2022-12-17T14:17:23;64.07;;;22.43;;
19016;SDS011;9641;51.494;6.670;2022-12-17T14:19:56;64.77;;;23.30;;
19016;SDS011;9641;51.494;6.670;2022-12-17T14:22:28;64.97;;;24.20;;
19016;SDS011;9641;51.494;6.670;2022-12-17T14:25:04;63.13;;;23.87;;
19016;SDS011;9641;51.494;6.670;2022-12-17T14:27:48;63.03;;;23.20;;
19016;SDS011;9641;51.494;6.670;2022-12-17T14:30:34;56.93;;;22.40;;
19016;SDS011;9641;51.494;6.670;2022-12-17T14:33:18;56.93;;;21.87;;
19016;SDS011;9641;51.494;6.670;2022-12-17T14:35:52;55.23;;;22.20;;
19016;SDS011;9641;51.494;6.670;2022-12-17T14:38:21;53.80;;;22.57;;
19016;SDS011;9641;51.494;6.670;2022-12-17T14:40:50;67.70;;;24.10;;
19016;SDS011;9641;51.494;6.670;2022-12-17T14:43:27;64.57;;;24.20;;
19016;SDS011;9641;51.494;6.670;2022-12-17T14:45:58;51.50;;;20.97;;
19016;SDS011;9641;51.494;6.670;2022-12-17T14:48:52;59.33;;;22.03;;
19016;SDS011;9641;51.494;6.670;2022-12-17T14:51:33;56.83;;;21.87;;
19016;SDS011;9641;51.494;6.670;2022-12-17T14:54:06;56.40;;;22.00;;
19016;SDS011;9641;51.494;6.670;2022-12-17T14:56:56;54.67;;;21.83;;
19016;SDS011;9641;51.494;6.670;2022-12-17T14:59:38;59.17;;;22.07;;
19016;SDS011;9641;51.494;6.670;2022-12-17T15:02:14;57.57;;;23.17;;
19016;SDS011;9641;51.494;6.670;2022-12-17T15:05:02;63.30;;;24.70;;
19016;SDS011;9641;51.494;6.670;2022-12-17T15:07:37;58.60;;;22.47;;
19016;SDS011;9641;51.494;6.670;2022-12-17T15:10:20;59.60;;;22.77;;
19016;SDS011;9641;51.494;6.670;2022-12-17T15:12:51;66.83;;;24.23;;
19016;SDS011;9641;51.494;6.670;2022-12-17T15:15:36;62.53;;;25.13;;
19016;SDS011;9641;51.494;6.670;2022-12-17T15:18:07;59.97;;;24.43;;
19016;SDS011;9641;51.494;6.670;2022-12-17T15:20:35;64.77;;;23.47;;
19016;SDS011;9641;51.494;6.670;2022-12-17T15:23:03;62.67;;;24.97;;
19016;SDS011;9641;51.494;6.670;2022-12-17T15:25:33;67.53;;;24.97;;
19016;SDS011;9641;51.494;6.670;2022-12-17T15:28:06;62.57;;;23.70;;
19016;SDS011;9641;51.494;6.670;2022-12-17T15:30:34;54.60;;;21.97;;
19016;SDS011;9641;51.494;6.670;2022-12-17T15:33:01;69.03;;;24.27;;
19016;SDS011;9641;51.494;6.670;2022-12-17T15:35:31;62.73;;;24.13;;
19016;SDS011;9641;51.494;6.670;2022-12-17T15:37:59;69.90;;;24.63;;
19016;SDS011;9641;51.494;6.670;2022-12-17T15:40:30;70.53;;;24.60;;
19016;SDS011;9641;51.494;6.670;2022-12-17T15:43:00;64.80;;;24.63;;
19016;SDS011;9641;51.494;6.670;2022-12-17T15:45:44;64.90;;;24.73;;
19016;SDS011;9641;51.494;6.670;2022-12-17T15:48:29;66.57;;;25.50;;
19016;SDS011;9641;51.494;6.670;2022-12-17T15:50:58;55.97;;;20.30;;
19016;SDS011;9641;51.494;6.670;2022-12-17T15:53:28;46.23;;;20.30;;
19016;SDS011;9641;51.494;6.670;2022-12-17T15:55:57;52.90;;;21.53;;
19016;SDS011;9641;51.494;6.670;2022-12-17T15:58:28;48.17;;;19.40;;
19016;SDS011;9641;51.494;6.670;2022-12-17T16:00:57;48.53;;;20.37;;
19016;SDS011;9641;51.494;6.670;2022-12-17T16:03:24;44.63;;;19.07;;
19016;SDS011;9641;51.494;6.670;2022-12-17T16:05:51;48.53;;;18.97;;
19016;SDS011;9641;51.494;6.670;2022-12-17T16:08:19;48.50;;;19.83;;
19016;SDS011;9641;51.494;6.670;2022-12-17T16:10:45;46.80;;;20.57;;
19016;SDS011;9641;51.494;6.670;2022-12-17T16:13:13;47.33;;;19.93;;
19016;SDS011;9641;51.494;6.670;2022-12-17T16:15:40;48.07;;;19.63;;
19016;SDS011;9641;51.494;6.670;2022-12-17T16:18:16;51.57;;;20.70;;
19016;SDS011;9641;51.494;6.670;2022-12-17T16:20:43;48.17;;;18.43;;
19016;SDS011;9641;51.494;6.670;2022-12-17T16:23:10;47.43;;;19.60;;
19016;SDS011;9641;51.494;6.670;2022-12-17T16:25:38;51.73;;;20.27;;
19016;SDS011;9641;51.494;6.670;2022-12-17T16:28:06;44.90;;;18.27;;
19016;SDS011;9641;51.494;6.670;2022-12-17T16:30:34;40.97;;;17.73;;
19016;SDS011;9641;51.494;6.670;2022-12-17T16:33:01;49.73;;;18.90;;
19016;SDS011;9641;51.494;6.670;2022-12-17T16:35:30;52.00;;;18.20;;
19016;SDS011;9641;51.494;6.670;2022-12-17T16:37:57;53.23;;;19.80;;
19016;SDS011;9641;51.494;6.670;2022-12-17T16:40:24;44.73;;;17.07;;
19016;SDS011;9641;51.494;6.670;2022-12-17T16:42:52;49.50;;;19.80;;
19016;SDS011;9641;51.494;6.670;2022-12-17T16:45:23;54.63;;;19.63;;
19016;SDS011;9641;51.494;6.670;2022-12-17T16:47:53;53.43;;;18.27;;
19016;SDS011;9641;51.494;6.670;2022-12-17T16:50:20;36.97;;;17.03;;
19016;SDS011;9641;51.494;6.670;2022-12-17T16:52:48;48.17;;;18.27;;
19016;SDS011;9641;51.494;6.670;2022-12-17T16:55:16;46.63;;;18.37;;
19016;SDS011;9641;51.494;6.670;2022-12-17T16:57:43;46.73;;;20.00;;
19016;SDS011;9641;51.494;6.670;2022-12-17T17:00:13;48.00;;;18.87;;
19016;SDS011;9641;51.494;6.670;2022-12-17T17:02:40;43.73;;;17.50;;
19016;SDS011;9641;51.494;6.670;2022-12-17T17:05:07;51.43;;;19.50;;
19016;SDS011;9641;51.494;6.670;2022-12-17T17:07:35;45.00;;;18.80;;
19016;SDS011;9641;51.494;6.670;2022-12-17T17:10:04;49.77;;;19.63;;
19016;SDS011;9641;51.494;6.670;2022-12-17T17:12:32;53.30;;;19.90;;
19016;SDS011;9641;51.494;6.670;2022-12-17T17:14:59;45.53;;;19.27;;
19016;SDS011;9641;51.494;6.670;2022-12-17T17:17:26;46.93;;;19.00;;
19016;SDS011;9641;51.494;6.670;2022-12-17T17:19:53;47.00;;;17.77;;
19016;SDS011;9641;51.494;6.670;2022-12-17T17:22:20;50.07;;;18.40;;
19016;SDS011;9641;51.494;6.670;2022-12-17T17:24:47;47.37;;;18.53;;
19016;SDS011;9641;51.494;6.670;2022-12-17T17:27:15;50.03;;;19.27;;
19016;SDS011;9641;51.494;6.670;2022-12-17T17:29:42;47.40;;;18.47;;
19016;SDS011;9641;51.494;6.670;2022-12-17T17:32:09;44.77;;;18.80;;
19016;SDS011;9641;51.494;6.670;2022-12-17T17:34:37;43.67;;;19.50;;
19016;SDS011;9641;51.494;6.670;2022-12-17T17:37:04;42.77;;;18.03;;
19016;SDS011;9641;51.494;6.670;2022-12-17T17:39:31;53.53;;;18.03;;
19016;SDS011;9641;51.494;6.670;2022-12-17T17:41:59;51.07;;;19.47;;
19016;SDS011;9641;51.494;6.670;2022-12-17T17:44:27;51.93;;;20.17;;
19016;SDS011;9641;51.494;6.670;2022-12-17T17:46:57;47.63;;;19.50;;
19016;SDS011;9641;51.494;6.670;2022-12-17T17:49:24;42.87;;;19.20;;
19016;SDS011;9641;51.494;6.670;2022-12-17T17:51:53;49.70;;;19.03;;
19016;SDS011;9641;51.494;6.670;2022-12-17T17:54:20;56.33;;;21.17;;
19016;SDS011;9641;51.494;6.670;2022-12-17T17:56:47;44.93;;;18.10;;
19016;SDS011;9641;51.494;6.670;2022-12-17T17:59:16;52.90;;;17.53;;
19016;SDS011;9641;51.494;6.670;2022-12-17T18:01:45;38.47;;;17.90;;
19016;SDS011;9641;51.494;6.670;2022-12-17T18:04:17;53.27;;;21.10;;
19016;SDS011;9641;51.494;6.670;2022-12-17T18:06:46;48.73;;;21.90;;
19016;SDS011;9641;51.494;6.670;2022-12-17T18:09:14;53.17;;;24.00;;
19016;SDS011;9641;51.494;6.670;2022-12-17T18:11:41;65.90;;;24.90;;
19016;SDS011;9641;51.494;6.670;2022-12-17T18:14:10;53.93;;;22.40;;
19016;SDS011;9641;51.494;6.670;2022-12-17T18:16:38;65.83;;;23.50;;
19016;SDS011;9641;51.494;6.670;2022-12-17T18:19:09;63.30;;;23.27;;
19016;SDS011;9641;51.494;6.670;2022-12-17T18:21:37;50.40;;;19.90;;
19016;SDS011;9641;51.494;6.670;2022-12-17T18:24:06;59.73;;;20.70;;
19016;SDS011;9641;51.494;6.670;2022-12-17T18:26:36;51.27;;;22.90;;
19016;SDS011;9641;51.494;6.670;2022-12-17T18:29:07;45.63;;;19.33;;
19016;SDS011;9641;51.494;6.670;2022-12-17T18:31:34;48.33;;;21.00;;